Jenny Lake, Wyoming
Current Conditions -  °F | °C
As of 9:22 PM on Sunday 25 Jan 2015 (Local Time) from KDIJ Reporting Station
Moderate Fog Moderate Fog  
Wind Chill: 25°   Ceiling: 100
Heat Index: 25°   Visibility: 0.25mi
Dew Point: 25°   Wind: 0mph
Humidity: 100%   Direction: NA
Pressure: 30.46"   Gusts: NA
Location:  43.8705°N, 110.836°W
Report Text: KDIJ 260422Z AUTO 00000KT 1/4SM FZFG OVC001 M04/M04 A3046 RMK AO2 OVC V BKN
Loading
Personal Weather Stations






























Interactive Weather Map New forecast layout! Learn more

10-Day Weather Forecast

Advertisements
Track Severe Weather on mobile